This is the latest recevied weather packets stored in our database for station/object W4MJZ-1. If no packets are shown the sender has not sent any weather packets the latest 1 day(s).
| Time | Temp. | Humidity | Pressure | Rain* | Wind** | Luminosity | Snow |
|---|---|---|---|---|---|---|---|
| 1778032571 | 20° C | 35% | 1018.5 hPa | 0 mm | 3.13 m/s, 258° | - | - |
| 1778032338 | 20° C | 35% | 1018.5 hPa | 0 mm | 3.13 m/s, 258° | - | - |
| 1778032255 | 20° C | 35% | 1018.5 hPa | 0 mm | 2.68 m/s, 257° | - | - |
| 1778032038 | 20° C | 35% | 1018.5 hPa | 0 mm | 2.68 m/s, 257° | - | - |
| 1778031867 | 20° C | 35% | 1018.5 hPa | 0 mm | 2.68 m/s, 255° | - | - |
| 1778031744 | 20° C | 35% | 1018.5 hPa | 0 mm | 2.68 m/s, 255° | - | - |
| 1778031693 | 20° C | 35% | 1018.5 hPa | 0 mm | 3.13 m/s, 265° | - | - |
| 1778031440 | 20° C | 35% | 1018.5 hPa | 0 mm | 3.13 m/s, 265° | - | - |
| 1778031279 | 20.56° C | 34% | 1018.5 hPa | 0 mm | 3.58 m/s, 285° | - | - |
| 1778031139 | 20.56° C | 34% | 1018.5 hPa | 0 mm | 3.58 m/s, 285° | - | - |
| 1778031010 | 21.11° C | 33% | 1018.5 hPa | 0 mm | 4.02 m/s, 250° | - | - |
| 1778030839 | 21.11° C | 33% | 1018.5 hPa | 0 mm | 4.02 m/s, 250° | - | - |
| 1778030719 | 21.11° C | 33% | 1018.1 hPa | 0 mm | 4.47 m/s, 206° | - | - |
| 1778030538 | 21.11° C | 33% | 1018.1 hPa | 0 mm | 4.47 m/s, 206° | - | - |
| 1778030388 | 21.67° C | 31% | 1017.7 hPa | 0 mm | 3.58 m/s, 227° | - | - |
| 1778030239 | 21.67° C | 31% | 1017.7 hPa | 0 mm | 3.58 m/s, 227° | - | - |
| 1778030111 | 21.67° C | 31% | 1017.7 hPa | 0 mm | 2.68 m/s, 253° | - | - |
| 1778029939 | 21.67° C | 31% | 1017.7 hPa | 0 mm | 2.68 m/s, 253° | - | - |
| 1778029816 | 21.67° C | 32% | 1018.1 hPa | 0 mm | 2.68 m/s, 267° | - | - |
| 1778029638 | 21.67° C | 32% | 1018.1 hPa | 0 mm | 2.68 m/s, 267° | - | - |
| 1778029484 | 21.11° C | 33% | 1018.1 hPa | 0 mm | 3.13 m/s, 262° | - | - |
| 1778029338 | 21.11° C | 33% | 1018.1 hPa | 0 mm | 3.13 m/s, 262° | - | - |
| 1778029142 | 21.11° C | 31% | 1018.1 hPa | 0 mm | 3.58 m/s, 256° | - | - |
| 1778029039 | 21.11° C | 31% | 1018.1 hPa | 0 mm | 3.58 m/s, 256° | - | - |
| 1778028902 | 22.22° C | 30% | 1017.7 hPa | 0 mm | 3.58 m/s, 253° | - | - |
* Rain latest hour (hover to see other rain measurements)
** Current wind speed in m/s (hover to see current wind gust speed)